Terminal Aerodrome Forecast
Issued by NWS

Home | Current Version | Previous Version | Text Only | Print | Product List | Glossary Off
Versions: 1 2 3 4 5 6 7 8 9 10 11 12 13 14 15

377
FTUS43 KMPX 261736
TAFRWF
TAF
KRWF 261736Z 2618/2718 01006KT P6SM SCT045
     FM270500 02004KT P6SM SKC
     FM271400 01006KT P6SM SCT050=

USA.gov is the U.S. government's official web portal to all federal, state and local government web resources and services.